createdAt,value
2022-12-24T00:05:01.557Z,14.65
2022-12-24T00:10:07.618Z,19.73
2022-12-24T00:15:15.723Z,13.87
2022-12-24T00:20:21.161Z,14.48
2022-12-24T00:25:26.514Z,22.43
2022-12-24T00:30:34.394Z,13.07
2022-12-24T00:35:40.858Z,14.52
2022-12-24T00:40:46.117Z,17.97
2022-12-24T00:45:53.962Z,20.73
2022-12-24T00:50:59.297Z,13.03
2022-12-24T00:56:04.559Z,11.80
2022-12-24T01:01:13.024Z,17.67
2022-12-24T01:06:20.461Z,21.33
2022-12-24T01:11:25.670Z,13.65
2022-12-24T01:16:33.612Z,16.45
2022-12-24T01:21:38.940Z,18.57
2022-12-24T01:26:44.331Z,14.63
2022-12-24T01:31:52.186Z,13.67
2022-12-24T01:36:57.832Z,17.10
2022-12-24T01:42:15.754Z,16.80
2022-12-24T01:47:27.106Z,16.73
2022-12-24T01:52:36.063Z,12.13
2022-12-24T01:57:45.762Z,14.27
2022-12-24T02:02:55.989Z,20.30
2022-12-24T02:08:03.265Z,19.48
2022-12-24T02:13:09.390Z,16.17
2022-12-24T02:18:26.851Z,21.17
2022-12-24T02:23:59.415Z,19.40
2022-12-24T02:29:24.191Z,15.93
2022-12-24T02:34:35.817Z,12.90
2022-12-24T02:39:46.354Z,15.40
2022-12-24T02:44:55.558Z,20.05
2022-12-24T02:50:04.004Z,16.98
2022-12-24T02:55:12.520Z,15.67
2022-12-24T03:00:21.087Z,12.68
2022-12-24T03:05:35.807Z,15.90
2022-12-24T03:10:47.942Z,14.93
2022-12-24T03:15:54.568Z,16.50
2022-12-24T03:21:06.642Z,11.90
2022-12-24T03:26:15.333Z,15.23
2022-12-24T03:31:21.411Z,14.70
2022-12-24T03:36:30.882Z,16.90
2022-12-24T03:41:36.550Z,11.77
2022-12-24T03:46:41.808Z,12.87
2022-12-24T03:51:49.751Z,9.55
2022-12-24T03:56:55.098Z,13.77
2022-12-24T04:02:00.582Z,10.63
2022-12-24T04:07:09.292Z,12.00
2022-12-24T04:12:14.525Z,10.37
2022-12-24T04:17:20.192Z,9.30
2022-12-24T04:22:28.128Z,11.65
2022-12-24T04:27:33.406Z,7.87
2022-12-24T04:32:38.678Z,10.38
2022-12-24T04:37:46.488Z,11.88
2022-12-24T04:42:52.128Z,13.50
2022-12-24T04:47:57.393Z,16.50
2022-12-24T04:53:05.233Z,13.83
2022-12-24T04:58:10.583Z,9.95
2022-12-24T05:03:16.110Z,9.82
2022-12-24T05:08:23.996Z,6.40
2022-12-24T05:13:37.671Z,10.48
2022-12-24T05:18:48.250Z,7.22
2022-12-24T05:24:09.396Z,5.27
2022-12-24T05:29:15.179Z,10.23
2022-12-24T05:34:20.695Z,11.83
2022-12-24T05:39:28.601Z,13.18
2022-12-24T05:44:33.893Z,9.38
2022-12-24T05:49:39.227Z,11.50
2022-12-24T05:54:47.167Z,9.75
2022-12-24T05:59:52.818Z,6.80
2022-12-24T06:04:58.182Z,9.43
2022-12-24T06:10:06.282Z,11.07
2022-12-24T06:15:14.426Z,11.03
2022-12-24T06:20:21.550Z,10.88
2022-12-24T06:25:29.370Z,12.60
2022-12-24T06:30:34.704Z,14.47
2022-12-24T06:35:40.054Z,13.40
2022-12-24T06:40:49.465Z,8.77
2022-12-24T06:45:54.764Z,14.90
2022-12-24T06:51:00.145Z,12.75
2022-12-24T06:56:10.234Z,17.00
2022-12-24T07:01:17.919Z,10.27
2022-12-24T07:06:29.935Z,16.13
2022-12-24T07:11:37.958Z,14.93
2022-12-24T07:16:44.402Z,15.80
2022-12-24T07:21:51.277Z,11.77
2022-12-24T07:26:59.409Z,15.83
2022-12-24T07:32:05.051Z,12.60
2022-12-24T07:37:10.760Z,17.03
2022-12-24T07:42:18.598Z,17.08
2022-12-24T07:47:23.838Z,8.13
2022-12-24T07:52:29.344Z,18.07
2022-12-24T07:57:37.891Z,14.25
2022-12-24T08:02:43.389Z,17.13
2022-12-24T08:07:48.822Z,19.15
2022-12-24T08:12:56.696Z,19.75
2022-12-24T08:18:02.037Z,15.90
2022-12-24T08:23:07.485Z,19.30
2022-12-24T08:28:16.609Z,17.02
2022-12-24T08:33:22.604Z,15.07
2022-12-24T08:38:28.031Z,14.02
2022-12-24T08:43:36.055Z,16.27
2022-12-24T08:48:41.421Z,13.10
2022-12-24T08:53:46.882Z,21.67
2022-12-24T08:58:54.777Z,18.33
2022-12-24T09:04:00.120Z,17.90
2022-12-24T09:09:06.281Z,18.13
2022-12-24T09:14:14.293Z,19.20
2022-12-24T09:19:19.554Z,18.00
2022-12-24T09:24:24.882Z,15.27
2022-12-24T09:29:32.871Z,13.90
2022-12-24T09:34:38.202Z,17.23
2022-12-24T09:39:43.509Z,22.67
2022-12-24T09:45:00.107Z,13.65
2022-12-24T09:50:10.433Z,17.87
2022-12-24T09:55:23.442Z,15.20
2022-12-24T10:00:34.937Z,11.98
2022-12-24T10:05:46.476Z,19.00
2022-12-24T10:10:55.848Z,18.30
2022-12-24T10:16:12.513Z,12.00
2022-12-24T10:21:23.578Z,12.23
2022-12-24T10:26:31.962Z,17.17
2022-12-24T10:31:46.761Z,14.03
2022-12-24T10:36:52.190Z,15.47
2022-12-24T10:42:00.482Z,13.85
2022-12-24T10:47:10.930Z,19.63
2022-12-24T10:52:17.983Z,12.13
2022-12-24T10:57:29.498Z,12.50
2022-12-24T11:02:39.868Z,24.53
2022-12-24T11:07:45.345Z,17.45
2022-12-24T11:13:20.364Z,17.88
2022-12-24T11:18:20.388Z,22.73
2022-12-24T11:23:25.653Z,17.17
2022-12-24T11:28:33.493Z,19.95
2022-12-24T11:33:52.885Z,14.83
2022-12-24T11:39:00.622Z,11.48
2022-12-24T11:44:07.915Z,17.53
2022-12-24T11:49:25.305Z,15.77
2022-12-24T11:54:34.422Z,16.40
2022-12-24T11:59:44.092Z,15.17
2022-12-24T12:04:56.494Z,13.90
2022-12-24T12:10:07.995Z,18.63
2022-12-24T12:15:16.493Z,19.43
2022-12-24T12:20:27.197Z,15.68
2022-12-24T12:25:39.103Z,27.08
2022-12-24T12:30:47.552Z,16.40
2022-12-24T12:35:58.025Z,15.95
2022-12-24T12:41:15.144Z,20.20
2022-12-24T12:46:28.823Z,17.23
2022-12-24T12:51:45.753Z,15.70
2022-12-24T12:56:54.927Z,18.83
2022-12-24T13:02:07.458Z,15.50
2022-12-24T13:07:46.156Z,16.40
2022-12-24T13:13:06.672Z,18.77
2022-12-24T13:18:40.730Z,10.17
2022-12-24T13:23:48.784Z,15.32
2022-12-24T13:28:54.066Z,13.37
2022-12-24T13:34:01.901Z,16.48
2022-12-24T13:39:22.059Z,15.48
2022-12-24T13:44:33.681Z,19.17
2022-12-24T13:49:42.025Z,13.07
2022-12-24T13:55:03.073Z,16.27
2022-12-24T14:00:30.402Z,11.43
2022-12-24T14:05:39.297Z,13.65
2022-12-24T14:10:59.587Z,9.40
2022-12-24T14:16:07.407Z,9.25
2022-12-24T14:21:20.248Z,11.43
2022-12-24T14:26:46.474Z,11.40
2022-12-24T14:31:59.675Z,11.40
2022-12-24T14:37:07.419Z,12.30
2022-12-24T14:42:31.307Z,14.07
2022-12-24T14:47:43.399Z,17.27
2022-12-24T14:53:16.868Z,19.67
2022-12-24T14:58:26.956Z,13.70
2022-12-24T15:03:33.917Z,11.93
2022-12-24T15:08:42.974Z,13.83
2022-12-24T15:13:56.575Z,11.98
2022-12-24T15:19:05.869Z,11.10
2022-12-24T15:24:27.098Z,10.53
2022-12-24T15:29:42.174Z,16.70
2022-12-24T15:34:49.661Z,13.43
2022-12-24T15:40:00.075Z,31.37
2022-12-24T15:45:16.569Z,28.80
2022-12-24T15:50:29.103Z,24.93
2022-12-24T15:55:39.149Z,31.13
2022-12-24T16:01:02.386Z,31.27
2022-12-24T16:06:09.269Z,18.47
2022-12-24T16:11:19.237Z,15.10
2022-12-24T16:16:35.737Z,21.08
2022-12-24T16:21:43.347Z,19.77
2022-12-24T16:26:49.182Z,24.10
2022-12-24T16:31:59.435Z,17.80
2022-12-24T16:37:05.613Z,15.63
2022-12-24T16:42:23.537Z,15.35
2022-12-24T16:47:42.053Z,19.23
2022-12-24T16:52:48.167Z,12.77
2022-12-24T16:57:53.529Z,19.63
2022-12-24T17:03:01.752Z,12.30
2022-12-24T17:08:08.046Z,21.60
2022-12-24T17:13:13.574Z,17.98
2022-12-24T17:18:21.449Z,13.73
2022-12-24T17:23:26.697Z,19.83
2022-12-24T17:28:31.952Z,23.05
2022-12-24T17:33:39.829Z,13.00
2022-12-24T17:38:45.199Z,17.75
2022-12-24T17:43:50.928Z,26.83
2022-12-24T17:48:59.195Z,25.37
2022-12-24T17:54:05.477Z,19.13
2022-12-24T17:59:10.989Z,20.13
2022-12-24T18:04:18.905Z,25.08
2022-12-24T18:09:24.127Z,21.08
2022-12-24T18:14:29.574Z,25.00
2022-12-24T18:19:37.570Z,19.38
2022-12-24T18:24:42.954Z,24.67
2022-12-24T18:29:48.189Z,24.63
2022-12-24T18:34:56.542Z,22.73
2022-12-24T18:40:02.322Z,19.20
2022-12-24T18:45:08.778Z,23.30
2022-12-24T18:50:16.728Z,23.42
2022-12-24T18:55:22.013Z,18.00
2022-12-24T19:00:27.410Z,24.05
2022-12-24T19:05:36.040Z,23.93
2022-12-24T19:10:41.318Z,24.48
2022-12-24T19:15:46.593Z,22.98
2022-12-24T19:20:54.654Z,20.90
2022-12-24T19:25:59.947Z,23.13
2022-12-24T19:31:07.136Z,25.77
2022-12-24T19:36:18.387Z,20.90
2022-12-24T19:41:25.934Z,26.13
2022-12-24T19:46:33.158Z,24.07
2022-12-24T19:51:41.569Z,22.95
2022-12-24T19:56:47.183Z,24.17
2022-12-24T20:01:54.334Z,29.27
2022-12-24T20:07:02.614Z,23.80
2022-12-24T20:12:08.587Z,22.70
2022-12-24T20:17:14.894Z,25.98
2022-12-24T20:22:22.712Z,23.33
2022-12-24T20:27:28.579Z,24.45
2022-12-24T20:32:33.857Z,26.27
2022-12-24T20:37:46.277Z,24.00
2022-12-24T20:42:51.833Z,24.50
2022-12-24T20:47:57.301Z,20.37
2022-12-24T20:53:05.163Z,29.27
2022-12-24T20:58:10.476Z,22.27
2022-12-24T21:03:15.857Z,24.03
2022-12-24T21:08:24.029Z,24.33
2022-12-24T21:13:31.080Z,24.47
2022-12-24T21:18:36.344Z,21.20
2022-12-24T21:23:44.262Z,19.52
2022-12-24T21:28:50.544Z,23.37
2022-12-24T21:33:55.905Z,20.33
2022-12-24T21:39:03.781Z,21.23
2022-12-24T21:44:10.815Z,23.17
2022-12-24T21:49:29.020Z,18.40
2022-12-24T21:54:37.491Z,18.93
2022-12-24T21:59:43.485Z,21.40
2022-12-24T22:04:49.289Z,23.63
2022-12-24T22:10:09.694Z,22.55
2022-12-24T22:15:15.416Z,16.55
2022-12-24T22:20:20.970Z,22.60
2022-12-24T22:25:28.951Z,22.27
2022-12-24T22:30:35.129Z,20.40
2022-12-24T22:35:41.199Z,17.10
2022-12-24T22:40:49.475Z,23.33
2022-12-24T22:45:54.778Z,13.97
2022-12-24T22:51:00.105Z,18.13
2022-12-24T22:56:09.503Z,18.00
2022-12-24T23:01:15.199Z,16.70
2022-12-24T23:06:20.880Z,17.35
2022-12-24T23:11:30.366Z,17.57
2022-12-24T23:16:35.950Z,18.50
2022-12-24T23:21:42.261Z,20.30
2022-12-24T23:26:50.183Z,20.15
2022-12-24T23:31:56.613Z,15.82
2022-12-24T23:37:02.335Z,14.80
2022-12-24T23:42:10.592Z,8.90
2022-12-24T23:47:16.101Z,17.00
2022-12-24T23:52:21.676Z,10.98
2022-12-24T23:57:29.604Z,13.88
